createdAt,value
2023-04-27T00:04:49.397Z,213975.00
2023-04-27T00:10:51.900Z,214003.00
2023-04-27T00:16:54.699Z,214011.00
2023-04-27T00:22:57.074Z,214011.00
2023-04-27T00:28:59.726Z,214033.00
2023-04-27T00:35:02.030Z,214003.00
2023-04-27T00:41:06.471Z,214003.00
2023-04-27T00:47:09.498Z,214011.00
2023-04-27T00:53:12.307Z,213997.00
2023-04-27T00:59:14.908Z,214011.00
2023-04-27T01:05:17.541Z,214052.00
2023-04-27T01:11:22.261Z,214033.00
2023-04-27T01:17:25.041Z,214025.00
2023-04-27T01:23:27.551Z,214052.00
2023-04-27T01:29:29.924Z,214072.00
2023-04-27T01:35:32.197Z,214058.00
2023-04-27T01:41:37.782Z,214033.00
2023-04-27T01:47:40.412Z,214058.00
2023-04-27T01:53:43.514Z,214052.00
2023-04-27T01:59:46.004Z,214092.00
2023-04-27T02:05:48.887Z,214092.00
2023-04-27T02:11:51.381Z,214099.00
2023-04-27T02:17:53.989Z,214099.00
2023-04-27T02:23:56.641Z,214127.00
2023-04-27T02:29:59.374Z,214113.00
2023-04-27T02:36:02.098Z,214107.00
2023-04-27T02:42:04.426Z,214078.00
2023-04-27T02:48:07.113Z,214107.00
2023-04-27T02:54:10.249Z,214127.00
2023-04-27T03:00:12.499Z,214155.00
2023-04-27T03:06:15.632Z,214141.00
2023-04-27T03:12:17.957Z,214155.00
2023-04-27T03:18:24.251Z,214177.00
2023-04-27T03:24:26.537Z,214163.00
2023-04-27T03:30:29.043Z,214169.00
2023-04-27T03:36:32.712Z,214197.00
2023-04-27T03:42:35.208Z,214252.00
2023-04-27T03:48:37.661Z,214307.00
2023-04-27T03:54:40.506Z,214321.00
2023-04-27T04:00:42.841Z,214384.00
2023-04-27T04:06:46.867Z,214382.00
2023-04-27T04:12:49.129Z,214376.00
2023-04-27T04:18:52.495Z,214363.00
2023-04-27T04:24:54.688Z,214404.00
2023-04-27T04:30:57.231Z,214466.00
2023-04-27T04:36:59.590Z,214474.00
2023-04-27T04:43:02.015Z,214510.00
2023-04-27T04:49:05.117Z,214529.00
2023-04-27T04:55:09.103Z,214502.00
2023-04-27T05:01:11.379Z,214488.00
2023-04-27T05:07:15.119Z,214496.00
2023-04-27T05:13:18.522Z,214474.00
2023-04-27T05:19:21.294Z,214446.00
2023-04-27T05:25:23.476Z,214446.00
2023-04-27T05:31:25.957Z,214474.00
2023-04-27T05:37:28.171Z,214488.00
2023-04-27T05:43:30.668Z,214515.00
2023-04-27T05:49:33.133Z,214496.00
2023-04-27T05:55:35.474Z,214466.00
2023-04-27T06:01:37.759Z,214446.00
2023-04-27T06:07:40.240Z,214454.00
2023-04-27T06:13:42.394Z,214551.00
2023-04-27T06:19:44.676Z,214725.00
2023-04-27T06:25:47.347Z,215052.00
2023-04-27T06:31:49.946Z,215329.00
2023-04-27T06:37:52.788Z,215441.00
2023-04-27T06:43:56.884Z,215510.00
2023-04-27T06:50:00.962Z,215371.00
2023-04-27T06:56:04.126Z,215391.00
2023-04-27T07:02:07.800Z,215391.00
2023-04-27T07:08:10.645Z,215510.00
2023-04-27T07:14:12.861Z,215734.00
2023-04-27T07:20:15.456Z,215937.00
2023-04-27T07:26:18.455Z,216675.00
2023-04-27T07:32:22.279Z,216964.00
2023-04-27T07:38:25.022Z,217129.00
2023-04-27T07:44:27.471Z,217162.00
2023-04-27T07:50:30.519Z,217419.00
2023-04-27T07:56:33.561Z,216901.00
2023-04-27T08:02:36.378Z,216691.00
2023-04-27T08:08:39.041Z,216669.00
2023-04-27T08:14:41.529Z,216824.00
2023-04-27T08:20:44.266Z,216766.00
2023-04-27T08:26:46.701Z,217233.00
2023-04-27T08:32:49.294Z,217568.00
2023-04-27T08:38:52.458Z,218931.00
2023-04-27T08:44:54.890Z,219422.00
2023-04-27T08:50:58.965Z,218868.00
2023-04-27T08:57:01.490Z,220340.00
2023-04-27T09:03:04.573Z,220996.00
2023-04-27T09:09:11.662Z,220862.00
2023-04-27T09:15:14.331Z,219349.00
2023-04-27T09:21:23.643Z,218501.00
2023-04-27T09:27:26.176Z,218788.00
2023-04-27T09:33:32.652Z,219733.00
2023-04-27T09:39:36.984Z,219752.00
2023-04-27T09:45:39.625Z,221381.00
2023-04-27T09:51:41.997Z,220930.00
2023-04-27T09:58:22.728Z,221096.00
2023-04-27T10:04:44.257Z,220182.00
2023-04-27T10:10:50.252Z,219883.00
2023-04-27T10:16:54.901Z,220609.00
2023-04-27T10:22:59.635Z,219550.00
2023-04-27T10:29:09.563Z,219422.00
2023-04-27T10:35:11.841Z,219213.00
2023-04-27T10:41:15.302Z,220158.00
2023-04-27T10:47:22.485Z,220501.00
2023-04-27T10:53:25.717Z,219466.00
2023-04-27T10:59:28.135Z,219962.00
2023-04-27T11:05:33.754Z,219536.00
2023-04-27T11:11:36.264Z,219191.00
2023-04-27T11:17:39.065Z,219125.00
2023-04-27T11:23:42.818Z,219070.00
2023-04-27T11:29:45.535Z,219624.00
2023-04-27T11:35:48.356Z,219717.00
2023-04-27T11:41:50.832Z,219542.00
2023-04-27T11:47:53.574Z,219163.00
2023-04-27T11:53:56.120Z,219091.00
2023-04-27T12:00:00.710Z,218882.00
2023-04-27T12:12:09.216Z,218567.00
2023-04-27T12:18:11.659Z,218595.00
2023-04-27T12:24:14.599Z,218258.00
2023-04-27T12:30:17.500Z,218222.00
2023-04-27T12:36:20.118Z,218318.00
2023-04-27T12:42:24.991Z,218472.00
2023-04-27T12:48:27.916Z,218330.00
2023-04-27T12:54:30.324Z,218280.00
2023-04-27T13:00:32.818Z,218188.00
2023-04-27T13:06:35.399Z,218072.00
2023-04-27T13:12:37.966Z,217867.00
2023-04-27T13:18:41.271Z,217461.00
2023-04-27T13:24:43.713Z,217170.00
2023-04-27T13:30:46.083Z,217227.00
2023-04-27T13:36:49.622Z,217590.00
2023-04-27T13:42:52.438Z,217951.00
2023-04-27T13:48:55.211Z,218102.00
2023-04-27T13:54:57.661Z,218146.00
2023-04-27T14:01:00.056Z,218345.00
2023-04-27T14:07:02.476Z,218296.00
2023-04-27T14:13:05.230Z,218001.00
2023-04-27T14:19:07.618Z,217702.00
2023-04-27T14:25:10.008Z,217610.00
2023-04-27T14:31:12.371Z,217277.00
2023-04-27T14:37:18.276Z,217199.00
2023-04-27T14:43:20.770Z,217271.00
2023-04-27T14:49:23.068Z,217213.00
2023-04-27T14:55:25.522Z,217277.00
2023-04-27T15:01:27.715Z,217362.00
2023-04-27T15:07:30.070Z,217475.00
2023-04-27T15:13:32.413Z,217653.00
2023-04-27T15:19:35.666Z,217732.00
2023-04-27T15:25:37.920Z,217576.00
2023-04-27T15:31:40.419Z,217590.00
2023-04-27T15:37:42.750Z,217546.00
2023-04-27T15:43:45.331Z,217524.00
2023-04-27T15:49:56.793Z,217488.00
2023-04-27T15:55:59.917Z,217362.00
2023-04-27T16:02:02.149Z,217319.00
2023-04-27T16:08:04.812Z,217249.00
2023-04-27T16:14:07.349Z,217113.00
2023-04-27T16:20:10.382Z,216978.00
2023-04-27T16:26:12.719Z,216840.00
2023-04-27T16:32:15.198Z,216782.00
2023-04-27T16:38:17.757Z,216747.00
2023-04-27T16:44:20.197Z,216703.00
2023-04-27T16:50:22.734Z,216605.00
2023-04-27T16:56:29.645Z,216458.00
2023-04-27T17:02:32.121Z,216345.00
2023-04-27T17:08:34.802Z,216282.00
2023-04-27T17:14:38.844Z,216238.00
2023-04-27T17:20:42.313Z,216196.00
2023-04-27T17:26:46.254Z,216133.00
2023-04-27T17:32:48.762Z,216106.00
2023-04-27T17:38:51.025Z,216078.00
2023-04-27T17:44:53.305Z,216029.00
2023-04-27T17:50:55.520Z,216015.00
2023-04-27T17:56:57.960Z,216015.00
2023-04-27T18:03:00.625Z,216015.00
2023-04-27T18:09:03.923Z,215981.00
2023-04-27T18:15:09.688Z,215945.00
2023-04-27T18:21:12.306Z,215880.00
2023-04-27T18:27:18.878Z,215866.00
2023-04-27T18:33:22.241Z,215847.00
2023-04-27T18:39:24.551Z,215811.00
2023-04-27T18:45:27.101Z,215777.00
2023-04-27T18:51:29.766Z,215791.00
2023-04-27T18:57:32.570Z,215783.00
2023-04-27T19:03:35.259Z,215783.00
2023-04-27T19:09:39.148Z,215756.00
2023-04-27T19:15:41.690Z,215636.00
2023-04-27T19:21:44.500Z,215518.00
2023-04-27T19:27:47.049Z,215413.00
2023-04-27T19:39:57.184Z,215289.00
2023-04-27T19:46:01.457Z,215204.00
2023-04-27T19:52:04.310Z,215168.00
2023-04-27T19:58:06.781Z,215058.00
2023-04-27T20:04:09.239Z,214932.00
2023-04-27T20:10:11.783Z,214897.00
2023-04-27T20:16:14.263Z,214841.00
2023-04-27T20:22:16.591Z,214773.00
2023-04-27T20:28:18.922Z,214711.00
2023-04-27T20:34:21.171Z,214711.00
2023-04-27T20:40:23.422Z,214703.00
2023-04-27T20:46:26.785Z,214689.00
2023-04-27T20:52:32.417Z,214667.00
2023-04-27T20:58:36.304Z,214626.00
2023-04-27T21:04:39.863Z,214584.00
2023-04-27T21:10:42.615Z,214537.00
2023-04-27T21:16:45.140Z,214474.00
2023-04-27T21:22:47.876Z,214390.00
2023-04-27T21:28:50.215Z,214341.00
2023-04-27T21:34:52.450Z,214280.00
2023-04-27T21:40:54.784Z,214191.00
2023-04-27T21:46:57.573Z,214133.00
2023-04-27T21:52:59.844Z,214078.00
2023-04-27T21:59:02.235Z,214052.00
2023-04-27T22:05:04.897Z,213991.00
2023-04-27T22:11:08.237Z,213956.00
2023-04-27T22:17:12.971Z,213908.00
2023-04-27T22:23:15.349Z,213872.00
2023-04-27T22:29:18.008Z,213852.00
2023-04-27T22:35:26.532Z,213830.00
2023-04-27T22:41:30.064Z,213789.00
2023-04-27T22:47:33.332Z,213764.00
2023-04-27T22:53:35.549Z,213734.00
2023-04-27T22:59:37.677Z,213673.00
2023-04-27T23:05:40.129Z,213631.00
2023-04-27T23:11:42.788Z,213575.00
2023-04-27T23:17:45.154Z,213481.00
2023-04-27T23:23:47.761Z,213417.00
2023-04-27T23:29:50.012Z,213328.00
2023-04-27T23:35:52.877Z,213254.00
2023-04-27T23:41:56.042Z,213226.00
2023-04-27T23:48:00.088Z,213184.00
2023-04-27T23:54:02.824Z,213158.00
